Time;durP1;ratioP1;P1;durP2;ratioP2;P2;SDS_P1;SDS_P2;PMS_P1;PMS_P2;Temp;Humidity;BMP_temperature;BMP_pressure;BME280_temperature;BME280_humidity;BME280_pressure;Samples;Min_cycle;Max_cycle;Signal;HPM_P1;HPM_P2
2021/03/21 09:10:49;;;;;;;0.77;0.43;;;10.30;99.90;;;;;;4957060;23;20250;-67
2021/03/21 09:13:20;;;;;;;3.60;0.60;;;10.20;99.90;;;;;;4937500;29;20216;-67
2021/03/21 09:15:59;;;;;;;0.50;0.33;;;10.10;99.90;;;;;;4938114;29;20213;-67
2021/03/21 09:18:27;;;;;;;3.63;0.60;;;9.90;99.90;;;;;;4935259;29;20260;-67
2021/03/21 09:21:06;;;;;;;1.03;0.57;;;9.90;99.90;;;;;;4937382;29;20216;-67
2021/03/21 09:23:40;;;;;;;1.27;0.83;;;9.80;99.90;;;;;;4937273;29;20223;-67
2021/03/21 09:26:32;;;;;;;7.97;0.90;;;9.70;99.90;;;;;;4936104;29;20228;-69
2021/03/21 09:29:02;;;;;;;1.40;0.73;;;9.70;99.90;;;;;;4936435;29;20305;-67
2021/03/21 09:31:29;;;;;;;1.03;0.90;;;9.70;99.90;;;;;;4937440;29;20224;-68
2021/03/21 09:34:01;;;;;;;3.23;0.60;;;9.60;99.90;;;;;;4936997;29;20676;-69
2021/03/21 09:36:34;;;;;;;5.80;1.20;;;9.50;99.90;;;;;;4936614;29;20237;-70
2021/03/21 09:39:09;;;;;;;2.67;1.00;;;9.40;99.90;;;;;;4936614;29;20209;-70
2021/03/21 09:41:36;;;;;;;2.03;0.80;;;9.40;99.90;;;;;;4936318;29;20213;-70
2021/03/21 09:44:20;;;;;;;3.60;0.90;;;9.50;99.90;;;;;;4937020;29;20225;-69
2021/03/21 09:46:50;;;;;;;3.63;1.37;;;9.70;99.90;;;;;;4937517;29;20334;-70
2021/03/21 09:49:23;;;;;;;1.73;0.90;;;9.90;99.90;;;;;;4935975;29;20307;-69
2021/03/21 09:51:52;;;;;;;4.10;1.37;;;9.90;99.90;;;;;;4937270;29;20272;-69
2021/03/21 09:54:35;;;;;;;2.57;1.10;;;9.90;99.90;;;;;;4937418;29;20208;-67
2021/03/21 09:57:20;;;;;;;3.83;0.87;;;10.00;99.90;;;;;;4935889;29;20335;-65
2021/03/21 09:59:55;;;;;;;2.90;0.80;;;9.90;99.90;;;;;;4937935;29;20212;-66
2021/03/21 10:02:29;;;;;;;2.87;1.00;;;10.00;99.90;;;;;;4937527;29;20247;-65
2021/03/21 10:05:00;;;;;;;3.77;0.97;;;10.00;99.90;;;;;;4937130;29;20714;-65
2021/03/21 10:07:36;;;;;;;1.60;0.70;;;10.00;99.90;;;;;;4937673;29;20592;-65
2021/03/21 10:10:07;;;;;;;5.60;0.90;;;10.20;99.90;;;;;;4937054;29;20220;-65
2021/03/21 10:12:39;;;;;;;2.60;0.70;;;10.50;99.90;;;;;;4937589;29;20216;-65
2021/03/21 10:15:12;;;;;;;2.90;1.30;;;10.70;99.90;;;;;;4937208;29;20730;-65
2021/03/21 10:17:50;;;;;;;5.13;1.20;;;10.80;99.90;;;;;;4937310;29;20235;-65
2021/03/21 10:20:19;;;;;;;4.13;1.00;;;10.80;99.90;;;;;;4937536;29;20204;-65
2021/03/21 10:22:54;;;;;;;3.30;1.23;;;11.00;99.90;;;;;;4937537;29;20213;-65
2021/03/21 10:25:57;;;;;;;3.43;0.90;;;10.90;99.90;;;;;;4937126;29;20221;-64
2021/03/21 10:28:47;;;;;;;5.83;1.30;;;10.70;99.90;;;;;;4937363;29;20240;-65
2021/03/21 10:31:31;;;;;;;4.07;1.27;;;10.50;99.90;;;;;;4937306;29;20627;-65
2021/03/21 10:34:46;;;;;;;4.83;1.33;;;10.20;99.90;;;;;;4937344;29;20204;-65
2021/03/21 10:37:32;;;;;;;2.73;0.90;;;10.20;99.90;;;;;;4937050;29;20240;-65
2021/03/21 10:40:04;;;;;;;3.93;1.00;;;10.20;99.90;;;;;;4936725;29;20537;-65
2021/03/21 10:42:55;;;;;;;5.70;1.13;;;10.30;99.90;;;;;;4936499;29;20212;-65
2021/03/21 10:45:46;;;;;;;4.47;1.43;;;10.30;99.90;;;;;;4927107;29;20216;-66
2021/03/21 10:48:50;;;;;;;3.20;0.90;;;10.10;99.90;;;;;;4936874;29;20787;-65
2021/03/21 10:51:17;;;;;;;3.83;1.00;;;10.00;99.90;;;;;;4937078;29;20209;-65
2021/03/21 10:54:31;;;;;;;2.03;0.93;;;10.20;99.90;;;;;;4936989;29;20329;-65
2021/03/21 10:57:23;;;;;;;2.40;0.70;;;10.10;99.90;;;;;;4896788;29;20272;-65
2021/03/21 11:00:12;;;;;;;2.77;0.80;;;10.20;99.90;;;;;;4896599;29;20644;-65
2021/03/21 11:02:39;;;;;;;6.43;0.90;;;10.10;99.90;;;;;;4926933;29;20575;-65
2021/03/21 11:05:20;;;;;;;3.60;0.70;;;10.20;99.90;;;;;;4936723;29;20221;-65
2021/03/21 11:07:48;;;;;;;3.37;0.90;;;10.40;99.90;;;;;;4936532;29;20244;-65
2021/03/21 11:10:14;;;;;;;2.30;0.70;;;10.30;99.90;;;;;;4936544;29;20228;-65
2021/03/21 11:12:43;;;;;;;6.00;0.90;;;10.10;99.90;;;;;;4936365;29;20694;-65
2021/03/21 11:15:21;;;;;;;1.77;0.70;;;10.00;99.90;;;;;;4936126;29;20605;-65
2021/03/21 11:17:47;;;;;;;2.47;0.60;;;10.00;99.90;;;;;;4936280;29;20281;-65
2021/03/21 11:20:27;;;;;;;2.03;1.10;;;10.00;99.90;;;;;;4936186;29;20682;-65
2021/03/21 11:22:54;;;;;;;6.27;1.10;;;10.20;99.90;;;;;;4936533;29;20231;-65
2021/03/21 11:25:34;;;;;;;2.30;0.90;;;10.30;99.90;;;;;;4936220;29;20216;-65
2021/03/21 11:28:01;;;;;;;5.50;0.87;;;10.40;99.90;;;;;;4936147;29;20236;-65
2021/03/21 11:30:28;;;;;;;5.47;1.20;;;10.50;99.90;;;;;;4935826;29;20208;-66
2021/03/21 11:32:56;;;;;;;4.80;1.20;;;10.70;99.90;;;;;;4936131;29;20263;-65
2021/03/21 11:35:25;;;;;;;2.20;1.10;;;10.70;99.90;;;;;;4936217;29;20217;-65
2021/03/21 11:37:55;;;;;;;5.40;1.10;;;10.70;99.90;;;;;;4936135;29;20239;-65
2021/03/21 11:40:26;;;;;;;3.67;1.20;;;10.70;99.90;;;;;;4935917;29;20213;-65
2021/03/21 11:43:07;;;;;;;3.70;1.13;;;10.60;99.90;;;;;;4935794;29;20308;-65
2021/03/21 11:45:36;;;;;;;2.93;0.73;;;10.60;99.90;;;;;;4935819;29;20205;-65
2021/03/21 11:48:14;;;;;;;3.53;1.13;;;10.70;99.90;;;;;;4935887;29;20319;-66
2021/03/21 11:50:42;;;;;;;5.27;1.00;;;10.70;99.90;;;;;;4935575;29;20220;-65
2021/03/21 11:53:15;;;;;;;5.50;1.17;;;10.90;99.90;;;;;;4935737;29;20209;-66
2021/03/21 11:55:44;;;;;;;4.50;1.27;;;11.20;99.90;;;;;;4936396;29;20310;-65
2021/03/21 11:58:17;;;;;;;3.93;0.90;;;11.20;99.90;;;;;;4935796;29;20208;-66
2021/03/21 12:00:54;;;;;;;3.17;1.07;;;11.30;99.90;;;;;;4935561;29;20205;-66
2021/03/21 12:03:23;;;;;;;5.47;1.00;;;11.30;99.90;;;;;;4935750;29;20556;-66
2021/03/21 12:05:59;;;;;;;3.73;1.93;;;11.20;99.90;;;;;;4935540;29;20718;-66
2021/03/21 12:08:34;;;;;;;5.37;1.13;;;11.10;99.90;;;;;;4935791;29;20232;-66
2021/03/21 12:11:15;;;;;;;8.27;2.50;;;11.00;99.90;;;;;;4935480;29;20216;-66
2021/03/21 12:13:42;;;;;;;6.03;1.10;;;10.90;99.90;;;;;;4935582;29;20252;-66
2021/03/21 12:16:34;;;;;;;6.60;1.67;;;11.00;99.90;;;;;;4935464;29;20229;-66
2021/03/21 12:19:00;;;;;;;6.37;1.30;;;10.90;99.90;;;;;;4935874;29;20219;-66
2021/03/21 12:21:27;;;;;;;6.50;1.40;;;10.80;99.90;;;;;;4935705;29;20216;-66
2021/03/21 12:24:04;;;;;;;5.57;1.77;;;10.80;99.90;;;;;;4935575;29;20216;-66
2021/03/21 12:26:59;;;;;;;13.27;1.70;;;10.70;99.90;;;;;;4935115;29;20220;-66
2021/03/21 12:29:43;;;;;;;4.97;1.40;;;10.90;99.90;;;;;;4926774;29;20217;-66
2021/03/21 12:32:35;;;;;;;5.73;1.50;;;11.10;99.90;;;;;;4935670;29;20212;-66
2021/03/21 12:35:02;;;;;;;6.17;1.23;;;11.10;99.90;;;;;;4935531;29;20208;-65
2021/03/21 12:37:42;;;;;;;7.07;1.37;;;11.00;99.90;;;;;;4935508;29;20704;-65
2021/03/21 12:40:12;;;;;;;6.40;1.60;;;10.90;99.90;;;;;;4935507;29;20213;-65
2021/03/21 12:42:41;;;;;;;4.27;1.10;;;10.80;99.90;;;;;;4935430;29;20205;-65
2021/03/21 12:45:21;;;;;;;5.50;1.43;;;10.80;99.90;;;;;;4935059;29;20692;-65
2021/03/21 12:47:59;;;;;;;3.07;1.00;;;10.70;99.90;;;;;;4935324;29;20299;-65
2021/03/21 12:50:32;;;;;;;5.90;1.10;;;10.80;99.90;;;;;;4935298;29;20213;-65
2021/03/21 12:52:59;;;;;;;5.37;1.27;;;10.70;99.90;;;;;;4934950;29;20209;-65
2021/03/21 12:55:26;;;;;;;9.73;1.30;;;10.70;99.90;;;;;;4935082;29;20671;-65
2021/03/21 12:57:54;;;;;;;3.63;1.37;;;10.60;99.90;;;;;;4935061;29;20229;-65
2021/03/21 13:00:23;;;;;;;8.00;1.20;;;10.40;99.90;;;;;;4935129;29;20672;-65
2021/03/21 13:02:52;;;;;;;6.83;1.00;;;10.30;99.90;;;;;;4935390;29;20213;-65
2021/03/21 13:05:21;;;;;;;2.80;1.20;;;10.40;99.90;;;;;;4938314;29;20213;-65
2021/03/21 13:07:47;;;;;;;6.27;1.50;;;10.50;99.90;;;;;;4938655;29;20244;-65
2021/03/21 13:10:14;;;;;;;9.73;1.70;;;10.60;99.90;;;;;;4938480;29;20218;-65
2021/03/21 13:12:41;;;;;;;8.50;1.60;;;10.70;99.90;;;;;;4938657;29;20697;-65
2021/03/21 13:15:10;;;;;;;6.33;1.50;;;10.90;99.90;;;;;;4938711;29;20205;-66
2021/03/21 13:17:37;;;;;;;6.97;1.33;;;11.00;99.90;;;;;;4938254;29;20237;-65
2021/03/21 13:20:05;;;;;;;4.53;1.40;;;10.90;99.90;;;;;;4938684;29;20690;-65
2021/03/21 13:22:31;;;;;;;5.10;1.23;;;10.80;99.90;;;;;;4938651;29;20212;-65
2021/03/21 13:24:57;;;;;;;4.83;1.40;;;10.70;99.90;;;;;;4938354;29;20640;-65
2021/03/21 13:27:24;;;;;;;8.60;1.73;;;10.70;99.90;;;;;;4938395;29;20240;-65
2021/03/21 13:29:50;;;;;;;4.73;1.90;;;10.60;99.90;;;;;;4938396;29;20205;-66
2021/03/21 13:32:17;;;;;;;8.77;1.90;;;10.80;99.90;;;;;;4938406;29;20209;-66
2021/03/21 13:34:43;;;;;;;7.67;1.50;;;11.00;99.90;;;;;;4938139;29;20576;-66
2021/03/21 13:37:10;;;;;;;7.70;1.37;;;11.00;99.90;;;;;;4938130;29;20727;-66
2021/03/21 13:39:36;;;;;;;4.27;1.07;;;10.90;99.90;;;;;;4938205;29;20217;-66
2021/03/21 13:42:04;;;;;;;9.43;1.30;;;10.80;99.90;;;;;;4938019;29;20579;-66
2021/03/21 13:44:31;;;;;;;4.37;1.03;;;10.80;99.90;;;;;;4938263;29;20204;-66
2021/03/21 13:46:57;;;;;;;8.00;1.33;;;10.90;99.90;;;;;;4937989;29;20239;-66
2021/03/21 13:49:24;;;;;;;4.33;1.13;;;10.80;99.90;;;;;;4937937;29;20683;-66
2021/03/21 13:51:50;;;;;;;9.00;1.70;;;10.80;99.90;;;;;;4938067;29;20220;-66
2021/03/21 13:54:18;;;;;;;7.20;1.40;;;11.00;99.90;;;;;;4937611;29;20212;-66
2021/03/21 13:56:44;;;;;;;6.97;1.40;;;11.10;99.90;;;;;;4937872;29;20280;-66
2021/03/21 13:59:11;;;;;;;5.80;1.17;;;11.10;99.90;;;;;;4937962;29;20215;-66
2021/03/21 14:01:37;;;;;;;10.40;1.97;;;11.00;99.90;;;;;;4937817;29;20687;-66
2021/03/21 14:04:03;;;;;;;8.13;1.60;;;11.00;99.90;;;;;;4937771;29;20219;-66
2021/03/21 14:06:30;;;;;;;9.63;1.83;;;11.00;99.90;;;;;;4937580;29;20232;-66
2021/03/21 14:08:56;;;;;;;6.03;1.50;;;11.00;99.90;;;;;;4937465;29;20228;-66
2021/03/21 14:11:23;;;;;;;8.80;1.40;;;11.00;99.90;;;;;;4937635;29;20272;-66
2021/03/21 14:13:49;;;;;;;10.80;2.10;;;11.10;99.90;;;;;;4937515;29;20212;-66
2021/03/21 14:16:17;;;;;;;7.13;1.33;;;11.00;99.90;;;;;;4937412;29;20233;-66
2021/03/21 14:18:43;;;;;;;8.07;1.57;;;10.90;99.90;;;;;;4937454;29;20213;-66
2021/03/21 14:21:09;;;;;;;7.83;1.80;;;10.80;99.90;;;;;;4937303;29;20236;-66
2021/03/21 14:23:37;;;;;;;8.07;2.17;;;10.70;99.90;;;;;;4937569;29;20208;-66
2021/03/21 14:26:03;;;;;;;13.43;1.77;;;10.70;99.90;;;;;;4937086;29;20229;-66
2021/03/21 14:28:34;;;;;;;9.80;1.73;;;10.60;99.90;;;;;;4937259;29;20244;-66
2021/03/21 14:31:01;;;;;;;7.83;1.47;;;10.90;99.90;;;;;;4937215;29;20315;-66
2021/03/21 14:33:27;;;;;;;7.67;1.40;;;11.20;99.90;;;;;;4937214;29;20693;-66
2021/03/21 14:35:53;;;;;;;11.90;1.47;;;11.10;99.90;;;;;;4936951;29;20236;-66
2021/03/21 14:38:22;;;;;;;11.37;1.63;;;10.90;99.90;;;;;;4937189;29;20219;-66
2021/03/21 14:40:50;;;;;;;11.90;2.57;;;10.70;99.90;;;;;;4937019;29;20208;-66
2021/03/21 14:43:18;;;;;;;7.27;2.17;;;10.70;99.90;;;;;;4936961;29;20664;-66
2021/03/21 14:45:44;;;;;;;8.53;2.00;;;10.60;99.90;;;;;;4936836;29;20213;-64
2021/03/21 14:48:12;;;;;;;9.17;1.77;;;10.70;99.90;;;;;;4936809;29;20233;-64
2021/03/21 14:50:38;;;;;;;10.80;1.40;;;10.50;99.90;;;;;;4936657;29;20255;-65
2021/03/21 14:53:04;;;;;;;7.00;1.83;;;10.30;99.90;;;;;;4936791;29;20213;-65
2021/03/21 14:55:32;;;;;;;10.57;1.97;;;10.30;99.90;;;;;;4936706;29;20212;-65
2021/03/21 14:58:00;;;;;;;10.47;2.30;;;10.40;99.90;;;;;;4936866;29;20215;-65
2021/03/21 15:00:29;;;;;;;15.33;1.87;;;10.40;99.90;;;;;;4937511;29;20209;-66
2021/03/21 15:02:56;;;;;;;7.17;1.30;;;10.40;99.90;;;;;;4937498;29;20209;-65
2021/03/21 15:05:24;;;;;;;8.83;1.43;;;10.50;99.90;;;;;;4937396;29;20245;-65
2021/03/21 15:07:50;;;;;;;7.70;1.67;;;10.50;99.90;;;;;;4936926;29;20715;-65
2021/03/21 15:10:19;;;;;;;6.20;1.47;;;10.40;99.90;;;;;;4936953;29;20280;-65
2021/03/21 15:12:46;;;;;;;4.33;1.60;;;10.30;99.90;;;;;;4936293;29;20235;-65
2021/03/21 15:15:25;;;;;;;10.37;1.90;;;10.20;99.90;;;;;;4936414;29;20265;-65
2021/03/21 15:17:51;;;;;;;9.70;1.90;;;10.20;99.90;;;;;;4935919;29;20228;-65
2021/03/21 15:20:19;;;;;;;3.10;1.03;;;10.00;99.90;;;;;;4936419;29;20220;-65
2021/03/21 15:22:47;;;;;;;9.77;1.53;;;9.90;99.90;;;;;;4936896;29;20304;-65
2021/03/21 15:25:14;;;;;;;8.47;1.67;;;9.90;99.90;;;;;;4936229;29;20682;-65
2021/03/21 15:27:41;;;;;;;10.30;1.53;;;9.80;99.90;;;;;;4936196;29;20240;-65
2021/03/21 15:30:08;;;;;;;8.43;1.83;;;9.80;99.90;;;;;;4936451;29;20209;-65
2021/03/21 15:32:35;;;;;;;9.33;1.40;;;9.80;99.90;;;;;;4936139;29;20219;-64
2021/03/21 15:35:03;;;;;;;10.07;1.73;;;10.00;99.90;;;;;;4936250;29;20208;-65
2021/03/21 15:37:29;;;;;;;5.30;1.30;;;9.90;99.90;;;;;;4935933;29;20552;-65
2021/03/21 15:39:56;;;;;;;8.10;1.47;;;9.80;99.90;;;;;;4935798;29;20208;-65
2021/03/21 15:42:22;;;;;;;6.07;1.20;;;9.70;99.90;;;;;;4935613;29;20212;-65
2021/03/21 15:44:48;;;;;;;7.07;1.40;;;9.80;99.90;;;;;;4936041;29;20221;-65
2021/03/21 15:47:15;;;;;;;8.80;1.27;;;9.90;99.90;;;;;;4935964;29;20244;-65
2021/03/21 15:49:42;;;;;;;5.47;1.30;;;10.00;99.90;;;;;;4935888;29;20263;-65
2021/03/21 15:52:08;;;;;;;6.33;1.47;;;9.80;99.90;;;;;;4935961;29;20255;-65
2021/03/21 15:54:35;;;;;;;12.47;1.53;;;9.80;99.90;;;;;;4935867;29;20217;-65
2021/03/21 15:57:01;;;;;;;13.20;1.80;;;9.70;99.90;;;;;;4935555;29;20240;-65
2021/03/21 15:59:27;;;;;;;9.67;1.30;;;9.60;99.90;;;;;;4935999;29;20209;-65
2021/03/21 16:01:53;;;;;;;6.50;1.57;;;9.50;99.90;;;;;;4935705;29;20271;-65
2021/03/21 16:04:19;;;;;;;6.37;1.27;;;9.50;99.90;;;;;;4935741;29;20672;-65
2021/03/21 16:06:47;;;;;;;6.47;1.17;;;9.50;99.90;;;;;;4935670;29;20233;-65
2021/03/21 16:09:13;;;;;;;7.50;1.77;;;9.50;99.90;;;;;;4935713;29;20620;-65
2021/03/21 16:11:40;;;;;;;10.83;1.33;;;9.50;99.90;;;;;;4935381;29;20224;-65
2021/03/21 16:14:06;;;;;;;4.73;1.10;;;9.40;99.90;;;;;;4935707;29;20283;-65
2021/03/21 16:16:33;;;;;;;9.20;1.30;;;9.40;99.90;;;;;;4935762;29;20229;-66
2021/03/21 16:19:00;;;;;;;6.83;1.50;;;9.40;99.90;;;;;;4935655;29;20213;-65
2021/03/21 16:21:26;;;;;;;8.87;1.47;;;9.30;99.90;;;;;;4935237;29;20612;-65
2021/03/21 16:23:53;;;;;;;11.90;1.93;;;9.30;99.90;;;;;;4935457;29;20208;-65
2021/03/21 16:26:19;;;;;;;6.53;1.83;;;9.40;99.90;;;;;;4934898;29;20232;-65
2021/03/21 16:28:46;;;;;;;9.63;1.37;;;9.30;99.90;;;;;;4935216;29;20244;-65
2021/03/21 16:31:12;;;;;;;5.67;1.20;;;9.10;99.90;;;;;;4935635;29;20209;-65
2021/03/21 16:33:38;;;;;;;8.17;1.47;;;9.00;99.90;;;;;;4935306;29;20739;-65
2021/03/21 16:36:05;;;;;;;2.63;1.00;;;9.00;99.90;;;;;;4935309;29;20228;-65
2021/03/21 16:38:31;;;;;;;9.20;1.60;;;8.90;99.90;;;;;;4935500;29;20565;-66
2021/03/21 16:41:00;;;;;;;7.50;1.70;;;8.90;99.90;;;;;;4939019;29;20675;-66
2021/03/21 16:43:30;;;;;;;11.30;1.40;;;8.90;99.90;;;;;;4939414;29;20217;-65
2021/03/21 16:45:58;;;;;;;6.50;1.60;;;8.90;99.90;;;;;;4939134;29;20239;-66
2021/03/21 16:48:26;;;;;;;5.60;1.60;;;8.80;99.90;;;;;;4939027;29;20243;-65
2021/03/21 16:50:53;;;;;;;10.43;1.80;;;8.80;99.90;;;;;;4938838;29;20248;-65
2021/03/21 16:53:22;;;;;;;5.07;1.53;;;8.80;99.90;;;;;;4939014;29;20209;-65
2021/03/21 16:55:49;;;;;;;8.53;1.20;;;8.80;99.90;;;;;;4939004;29;20281;-65
2021/03/21 16:58:16;;;;;;;12.90;2.17;;;8.80;99.90;;;;;;4938978;29;20217;-65
2021/03/21 17:00:43;;;;;;;10.20;1.77;;;8.70;99.90;;;;;;4939086;29;20264;-65
2021/03/21 17:03:10;;;;;;;10.63;1.60;;;8.70;99.90;;;;;;4938835;29;20640;-65
2021/03/21 17:05:37;;;;;;;9.97;1.30;;;8.70;99.90;;;;;;4938532;29;20213;-65
2021/03/21 17:08:04;;;;;;;8.63;1.77;;;8.70;99.90;;;;;;4938553;29;20236;-66
2021/03/21 17:10:33;;;;;;;6.50;1.00;;;8.70;99.90;;;;;;4938535;29;20223;-66
2021/03/21 17:13:00;;;;;;;10.83;1.40;;;8.70;99.90;;;;;;4938749;29;20219;-66
2021/03/21 17:15:31;;;;;;;10.67;1.40;;;8.60;99.90;;;;;;4938747;29;20209;-66
2021/03/21 17:17:57;;;;;;;6.93;1.07;;;8.70;99.90;;;;;;4938818;29;20580;-66
2021/03/21 17:20:25;;;;;;;15.53;1.83;;;8.60;99.90;;;;;;4938567;29;20208;-66
2021/03/21 17:22:52;;;;;;;7.57;1.30;;;8.60;99.90;;;;;;4938859;29;20208;-65
2021/03/21 17:25:20;;;;;;;5.90;1.20;;;8.50;99.90;;;;;;4938477;29;20659;-65
2021/03/21 17:27:47;;;;;;;10.30;2.53;;;8.50;99.90;;;;;;4938233;29;20708;-66
2021/03/21 17:30:19;;;;;;;5.27;1.37;;;8.40;99.90;;;;;;4938382;29;20216;-66
2021/03/21 17:32:46;;;;;;;9.17;1.30;;;8.40;99.90;;;;;;4938114;29;20236;-66
2021/03/21 17:35:12;;;;;;;8.20;1.67;;;8.40;99.90;;;;;;4938369;29;20213;-66
2021/03/21 17:37:38;;;;;;;9.73;1.20;;;8.40;99.90;;;;;;4938232;29;20241;-66
2021/03/21 17:40:06;;;;;;;7.43;1.13;;;8.30;99.90;;;;;;4938539;29;20265;-66
2021/03/21 17:42:32;;;;;;;3.30;1.43;;;8.30;99.90;;;;;;4938371;29;20220;-65
2021/03/21 17:44:59;;;;;;;7.67;1.20;;;8.30;99.90;;;;;;4938441;29;20644;-65
2021/03/21 17:47:25;;;;;;;3.47;1.07;;;8.20;99.90;;;;;;4938008;29;20244;-65
2021/03/21 17:49:52;;;;;;;9.73;1.53;;;8.30;99.90;;;;;;4938219;29;20245;-65
2021/03/21 17:52:19;;;;;;;5.90;1.57;;;8.20;99.90;;;;;;4938196;29;20217;-66
2021/03/21 17:54:46;;;;;;;7.23;1.63;;;8.20;99.90;;;;;;4938332;29;20724;-65
2021/03/21 17:57:14;;;;;;;3.20;1.20;;;8.30;99.90;;;;;;4937840;29;20353;-65
2021/03/21 17:59:41;;;;;;;5.93;1.30;;;8.20;99.90;;;;;;4937993;29;20236;-66
2021/03/21 18:02:14;;;;;;;8.77;1.83;;;8.30;99.90;;;;;;4937729;29;20260;-65
2021/03/21 18:04:41;;;;;;;6.90;1.47;;;8.30;99.90;;;;;;4937908;29;20232;-66
2021/03/21 18:07:09;;;;;;;5.83;1.33;;;8.20;99.90;;;;;;4937455;29;20712;-66
2021/03/21 18:09:35;;;;;;;4.43;1.50;;;8.20;99.90;;;;;;4937669;29;20545;-66
2021/03/21 18:12:01;;;;;;;9.00;1.93;;;8.10;99.90;;;;;;4937694;29;20215;-66
2021/03/21 18:14:28;;;;;;;8.27;1.83;;;8.10;99.90;;;;;;4937418;29;20208;-66
2021/03/21 18:16:54;;;;;;;4.60;1.67;;;8.10;99.90;;;;;;4937363;29;20225;-66
2021/03/21 18:19:20;;;;;;;9.17;1.50;;;8.10;99.90;;;;;;4937558;29;20735;-66
2021/03/21 18:21:47;;;;;;;2.83;1.20;;;8.20;99.90;;;;;;4937477;29;20241;-66
2021/03/21 18:24:14;;;;;;;11.37;1.73;;;8.20;99.90;;;;;;4937470;29;20212;-66
2021/03/21 18:26:40;;;;;;;5.23;1.80;;;8.20;99.90;;;;;;4937039;29;20228;-66
2021/03/21 18:29:07;;;;;;;9.83;1.77;;;8.20;99.90;;;;;;4937177;29;20296;-66
2021/03/21 18:31:33;;;;;;;15.43;2.03;;;8.10;99.90;;;;;;4937557;29;20287;-66
2021/03/21 18:34:00;;;;;;;8.53;1.50;;;8.10;99.90;;;;;;4937045;29;20671;-66
2021/03/21 18:36:27;;;;;;;6.87;1.37;;;8.20;99.90;;;;;;4936973;29;20700;-66
2021/03/21 18:38:54;;;;;;;11.50;1.77;;;8.10;99.90;;;;;;4937264;29;20215;-66
2021/03/21 18:41:22;;;;;;;3.73;1.53;;;8.10;99.90;;;;;;4937098;29;20228;-66
2021/03/21 18:43:50;;;;;;;5.50;2.07;;;8.00;99.90;;;;;;4937014;29;20689;-66
2021/03/21 18:46:17;;;;;;;9.43;1.40;;;8.00;99.90;;;;;;4937087;29;20229;-64
2021/03/21 18:48:43;;;;;;;8.00;2.10;;;8.00;99.90;;;;;;4937071;29;20288;-64
2021/03/21 18:51:12;;;;;;;7.93;1.37;;;8.00;99.90;;;;;;4937121;29;20205;-64
2021/03/21 18:53:40;;;;;;;5.87;1.60;;;8.00;99.90;;;;;;4937123;29;20215;-65
2021/03/21 18:56:06;;;;;;;4.40;1.20;;;7.90;99.90;;;;;;4936625;29;20711;-65
2021/03/21 18:58:33;;;;;;;5.10;1.53;;;7.90;99.90;;;;;;4936621;29;20537;-64
2021/03/21 19:00:59;;;;;;;6.10;1.70;;;7.90;99.90;;;;;;4936530;29;20736;-64
2021/03/21 19:03:26;;;;;;;8.00;1.40;;;7.90;99.90;;;;;;4936363;29;20212;-64
2021/03/21 19:05:53;;;;;;;6.93;1.20;;;7.90;99.90;;;;;;4936770;29;20273;-64
2021/03/21 19:08:20;;;;;;;6.67;1.27;;;7.80;99.90;;;;;;4936539;29;20237;-67
2021/03/21 19:10:49;;;;;;;8.00;1.27;;;7.80;99.90;;;;;;4936214;29;20216;-65
2021/03/21 19:13:20;;;;;;;8.30;1.87;;;7.80;99.90;;;;;;4936732;29;20209;-65
2021/03/21 19:15:46;;;;;;;9.13;1.73;;;7.80;99.90;;;;;;4936329;29;20735;-66
2021/03/21 19:18:12;;;;;;;10.33;1.53;;;7.80;99.90;;;;;;4936428;29;20588;-65
2021/03/21 19:20:40;;;;;;;5.97;1.37;;;7.70;99.90;;;;;;4936385;29;20205;-65
2021/03/21 19:23:09;;;;;;;11.03;1.53;;;7.70;99.90;;;;;;4936303;29;20213;-65
2021/03/21 19:25:36;;;;;;;4.00;1.10;;;7.70;99.90;;;;;;4936317;29;20213;-65
2021/03/21 19:28:05;;;;;;;8.50;1.37;;;7.70;99.90;;;;;;4936585;29;20264;-65
2021/03/21 19:30:34;;;;;;;10.60;1.93;;;7.70;99.90;;;;;;4936580;29;20204;-66
2021/03/21 19:33:00;;;;;;;9.27;1.27;;;7.70;99.90;;;;;;4936449;29;20216;-66
2021/03/21 19:35:30;;;;;;;6.03;1.10;;;7.70;99.90;;;;;;4936147;29;20261;-65
2021/03/21 19:37:57;;;;;;;7.70;1.07;;;7.70;99.90;;;;;;4936416;29;20675;-65
2021/03/21 19:40:26;;;;;;;7.17;1.20;;;7.80;99.90;;;;;;4936561;29;20216;-66
2021/03/21 19:42:53;;;;;;;8.53;1.20;;;7.80;99.90;;;;;;4936554;29;20205;-65
2021/03/21 19:45:23;;;;;;;8.53;1.07;;;7.70;99.90;;;;;;4936195;29;20264;-65
2021/03/21 19:47:50;;;;;;;7.07;1.53;;;7.70;99.90;;;;;;4936105;29;20240;-65
2021/03/21 19:50:19;;;;;;;7.77;1.13;;;7.70;99.90;;;;;;4935696;29;20788;-65
2021/03/21 19:52:46;;;;;;;5.63;1.10;;;7.60;99.90;;;;;;4935687;29;20231;-65
2021/03/21 19:55:13;;;;;;;4.83;0.90;;;7.50;99.90;;;;;;4934425;29;20259;-65
2021/03/21 19:57:39;;;;;;;3.63;1.27;;;7.60;99.90;;;;;;4933920;29;20783;-66
2021/03/21 20:00:07;;;;;;;12.57;1.37;;;7.60;99.90;;;;;;4935853;29;20232;-65
2021/03/21 20:02:35;;;;;;;6.40;1.07;;;7.60;99.90;;;;;;4935664;29;20208;-66
2021/03/21 20:05:01;;;;;;;9.20;1.63;;;7.70;99.90;;;;;;4936058;29;20256;-66
2021/03/21 20:07:27;;;;;;;7.23;0.93;;;7.60;99.90;;;;;;4935848;29;20295;-66
2021/03/21 20:09:53;;;;;;;5.17;0.90;;;7.60;99.90;;;;;;4935543;29;20672;-66
2021/03/21 20:12:20;;;;;;;6.70;0.80;;;7.60;99.90;;;;;;4935757;29;20216;-66
2021/03/21 20:14:46;;;;;;;8.90;1.10;;;7.60;99.90;;;;;;4935676;29;20572;-65
2021/03/21 20:17:12;;;;;;;7.33;1.67;;;7.50;99.90;;;;;;4935730;29;20574;-66
2021/03/21 20:19:39;;;;;;;2.80;1.00;;;7.60;99.90;;;;;;4935533;29;20209;-66
2021/03/21 20:22:06;;;;;;;4.93;1.23;;;7.60;99.90;;;;;;4935888;29;20209;-66
2021/03/21 20:24:33;;;;;;;3.27;0.77;;;7.60;99.90;;;;;;4935540;29;20291;-66
2021/03/21 20:27:00;;;;;;;4.97;0.90;;;7.50;99.90;;;;;;4935447;29;20275;-66
2021/03/21 20:29:26;;;;;;;4.33;1.50;;;7.50;99.90;;;;;;4935651;29;20236;-65
2021/03/21 20:31:52;;;;;;;8.27;0.90;;;7.40;99.90;;;;;;4935684;29;20209;-65
2021/03/21 20:34:18;;;;;;;9.73;1.30;;;7.40;99.90;;;;;;4935497;29;20217;-64
2021/03/21 20:36:45;;;;;;;6.53;1.50;;;7.40;99.90;;;;;;4935680;29;20228;-65
2021/03/21 20:39:12;;;;;;;5.53;0.97;;;7.40;99.90;;;;;;4935599;29;20213;-64
2021/03/21 20:41:38;;;;;;;4.87;1.00;;;7.50;99.90;;;;;;4935452;29;20275;-65
2021/03/21 20:44:05;;;;;;;9.47;1.10;;;7.40;99.90;;;;;;4935559;29;20216;-65
2021/03/21 20:46:32;;;;;;;7.53;1.13;;;7.50;99.90;;;;;;4935278;29;20236;-66
2021/03/21 20:48:58;;;;;;;7.53;1.00;;;7.40;99.90;;;;;;4935326;29;20244;-66
2021/03/21 20:51:25;;;;;;;7.00;1.07;;;7.50;99.90;;;;;;4935566;29;20217;-65
2021/03/21 20:53:54;;;;;;;4.70;0.90;;;7.40;99.90;;;;;;4935599;29;20212;-65
2021/03/21 20:56:20;;;;;;;10.43;0.90;;;7.30;99.90;;;;;;4935298;29;20229;-65
2021/03/21 20:58:46;;;;;;;9.73;1.47;;;7.40;99.90;;;;;;4935299;29;20216;-65
2021/03/21 21:01:13;;;;;;;10.37;1.20;;;7.40;99.90;;;;;;4935112;29;20259;-66
2021/03/21 21:03:39;;;;;;;5.90;0.80;;;7.40;99.90;;;;;;4935200;29;20579;-64
2021/03/21 21:06:05;;;;;;;6.40;1.63;;;7.40;99.90;;;;;;4935407;29;20234;-64
2021/03/21 21:08:32;;;;;;;3.03;0.60;;;7.50;99.90;;;;;;4935254;29;20237;-64
2021/03/21 21:11:00;;;;;;;3.47;0.70;;;7.50;99.90;;;;;;4935032;29;20225;-64
2021/03/21 21:13:28;;;;;;;3.57;1.00;;;7.40;99.90;;;;;;4935761;29;20237;-65
2021/03/21 21:15:56;;;;;;;12.60;1.60;;;7.40;99.90;;;;;;4935081;29;20236;-64
2021/03/21 21:18:22;;;;;;;8.93;1.60;;;7.40;99.90;;;;;;4935294;29;20216;-64
2021/03/21 21:20:51;;;;;;;4.87;1.10;;;7.40;99.90;;;;;;4935265;29;20554;-64
2021/03/21 21:23:20;;;;;;;6.57;0.90;;;7.40;99.90;;;;;;4935315;29;20205;-64
2021/03/21 21:25:46;;;;;;;7.50;0.93;;;7.40;99.90;;;;;;4937013;29;20264;-64
2021/03/21 21:28:13;;;;;;;4.37;1.43;;;7.50;99.90;;;;;;4938528;29;20251;-65
2021/03/21 21:30:39;;;;;;;5.33;0.73;;;7.40;99.90;;;;;;4938471;29;20220;-65
2021/03/21 21:33:07;;;;;;;8.97;1.17;;;7.50;99.90;;;;;;4938661;29;20576;-65
2021/03/21 21:35:36;;;;;;;10.80;1.50;;;7.50;99.90;;;;;;4938316;29;20209;-64
2021/03/21 21:38:04;;;;;;;4.57;1.27;;;7.50;99.90;;;;;;4938110;29;20208;-65
2021/03/21 21:40:30;;;;;;;4.73;1.23;;;7.50;99.90;;;;;;4938339;29;20208;-65
2021/03/21 21:42:56;;;;;;;4.20;1.13;;;7.40;99.90;;;;;;4938176;29;20578;-65
2021/03/21 21:45:24;;;;;;;7.00;0.90;;;7.40;99.90;;;;;;4938474;29;20209;-65
2021/03/21 21:47:51;;;;;;;4.00;0.80;;;7.60;99.90;;;;;;4938290;29;20241;-65
2021/03/21 21:50:21;;;;;;;5.43;0.90;;;7.50;99.90;;;;;;4938103;29;20209;-65
2021/03/21 21:52:47;;;;;;;5.57;0.90;;;7.60;99.90;;;;;;4938274;29;20223;-65
